Time;durP1;ratioP1;P1;durP2;ratioP2;P2;SDS_P1;SDS_P2;PMS_P1;PMS_P2;Temp;Humidity;BMP_temperature;BMP_pressure;BME280_temperature;BME280_humidity;BME280_pressure;Samples;Min_cycle;Max_cycle;Signal;HPM_P1;HPM_P2
2023/03/20 00:02:22;;;;;;;25.00;11.70;;;;;;;3.22;62.04;100995.80;105008;1258;60479;-52
2023/03/20 00:04:54;;;;;;;20.70;10.50;;;;;;;3.22;61.92;100992.20;105088;1260;66771;-51
2023/03/20 00:07:23;;;;;;;18.20;9.60;;;;;;;3.18;61.76;100993.71;104787;1261;71006;-51
2023/03/20 00:10:01;;;;;;;19.80;9.40;;;;;;;3.15;61.80;100991.90;105219;1257;65041;-51
2023/03/20 00:12:50;;;;;;;21.70;12.50;;;;;;;3.12;62.08;100996.05;104823;1271;60649;-52
2023/03/20 00:15:34;;;;;;;24.20;11.00;;;;;;;3.06;62.50;100996.09;104946;1257;60444;-51
2023/03/20 00:18:03;;;;;;;22.20;11.10;;;;;;;3.01;62.96;100991.42;104735;1260;66212;-50
2023/03/20 00:20:40;;;;;;;21.20;10.70;;;;;;;2.95;63.32;100990.45;104668;1262;62703;-52
2023/03/20 00:23:12;;;;;;;19.90;11.90;;;;;;;2.87;63.50;100985.20;105065;1260;73668;-51
2023/03/20 00:25:41;;;;;;;25.00;12.60;;;;;;;2.82;63.60;100985.41;104539;1260;60732;-51
2023/03/20 00:28:33;;;;;;;21.40;12.60;;;;;;;2.76;63.55;100979.72;104482;1259;60367;-52
2023/03/20 00:31:03;;;;;;;29.90;15.20;;;;;;;2.70;63.69;100980.30;104591;1266;66215;-52
2023/03/20 00:33:31;;;;;;;33.80;15.20;;;;;;;2.66;64.07;100976.30;104846;1260;62749;-52
2023/03/20 00:36:00;;;;;;;30.70;16.70;;;;;;;2.62;64.25;100970.90;104699;1261;73673;-52
2023/03/20 00:38:32;;;;;;;24.30;11.00;;;;;;;2.58;64.38;100964.63;104620;1260;60579;-51
2023/03/20 00:41:01;;;;;;;24.80;12.00;;;;;;;2.61;64.35;100965.59;104586;1263;60447;-51
2023/03/20 00:43:31;;;;;;;25.20;10.80;;;;;;;2.68;64.25;100963.24;104397;1264;74605;-51
2023/03/20 00:46:02;;;;;;;25.40;11.10;;;;;;;2.73;64.04;100964.41;104777;1266;69834;-51
2023/03/20 00:48:31;;;;;;;24.90;12.00;;;;;;;2.78;64.09;100963.86;105107;1260;65552;-53
2023/03/20 00:51:00;;;;;;;24.70;10.30;;;;;;;2.86;63.98;100959.94;104754;1262;60822;-54
2023/03/20 00:53:28;;;;;;;28.30;12.70;;;;;;;2.90;63.80;100956.84;104807;1259;62052;-54
2023/03/20 00:55:56;;;;;;;31.00;13.40;;;;;;;2.90;63.63;100955.63;104706;1263;75622;-54
2023/03/20 00:58:30;;;;;;;23.80;12.40;;;;;;;2.86;63.33;100961.31;104724;1266;61671;-54
2023/03/20 01:01:00;;;;;;;32.20;14.90;;;;;;;2.81;63.21;100959.28;105026;1263;65054;-54
2023/03/20 01:03:31;;;;;;;29.00;13.50;;;;;;;2.78;63.13;100961.45;105256;1260;60417;-55
2023/03/20 01:05:59;;;;;;;27.60;13.60;;;;;;;2.72;63.05;100959.09;104700;1258;61419;-53
2023/03/20 01:08:28;;;;;;;27.60;14.70;;;;;;;2.63;63.17;100960.81;104750;1262;74811;-53
2023/03/20 01:10:57;;;;;;;32.30;15.50;;;;;;;2.55;63.23;100958.89;104816;1262;71266;-53
2023/03/20 01:13:27;;;;;;;25.00;14.20;;;;;;;2.50;63.62;100955.60;105060;1261;73533;-54
2023/03/20 01:15:56;;;;;;;24.40;11.00;;;;;;;2.45;63.62;100953.02;104800;1260;60863;-53
2023/03/20 01:18:26;;;;;;;25.90;13.50;;;;;;;2.39;63.53;100954.26;104933;1262;62213;-53
2023/03/20 01:20:54;;;;;;;29.20;14.40;;;;;;;2.30;63.48;100948.17;104841;1262;73536;-54
2023/03/20 01:23:25;;;;;;;24.30;12.90;;;;;;;2.28;63.57;100944.29;105161;1256;70966;-53
2023/03/20 01:26:00;;;;;;;28.70;12.80;;;;;;;2.24;63.58;100945.80;105221;1259;73599;-54
2023/03/20 01:28:28;;;;;;;24.10;13.20;;;;;;;2.20;63.52;100945.42;105255;1254;60873;-54
2023/03/20 01:30:56;;;;;;;27.70;13.70;;;;;;;2.15;63.50;100951.69;104916;1254;61052;-54
2023/03/20 01:33:45;;;;;;;23.00;11.80;;;;;;;2.09;63.67;100944.43;104973;1259;68088;-53
2023/03/20 01:36:15;;;;;;;26.60;14.80;;;;;;;2.08;64.06;100946.39;105035;1267;70301;-54
2023/03/20 01:38:43;;;;;;;23.80;11.80;;;;;;;2.07;63.96;100948.14;105482;1255;73717;-53
2023/03/20 01:41:16;;;;;;;21.40;10.40;;;;;;;2.10;63.86;100946.85;104906;1254;62234;-54
2023/03/20 01:43:45;;;;;;;19.70;9.30;;;;;;;2.17;63.68;100941.55;105368;1259;60539;-54
2023/03/20 01:46:18;;;;;;;26.00;10.80;;;;;;;2.20;63.70;100933.48;105015;1259;66295;-54
2023/03/20 01:48:49;;;;;;;24.10;10.50;;;;;;;2.26;63.84;100934.83;105215;1257;62620;-55
2023/03/20 01:51:22;;;;;;;26.20;10.40;;;;;;;2.33;63.79;100941.16;105145;1259;73627;-53
2023/03/20 01:53:54;;;;;;;19.80;10.10;;;;;;;2.37;63.79;100941.17;105008;1259;60783;-55
2023/03/20 01:56:29;;;;;;;20.50;12.60;;;;;;;2.39;63.94;100939.20;104800;1259;60457;-54
2023/03/20 01:59:02;;;;;;;25.20;11.40;;;;;;;2.38;63.89;100940.29;105024;1254;64868;-54
2023/03/20 02:01:30;;;;;;;21.80;10.30;;;;;;;2.37;63.99;100945.16;105118;1261;62671;-53
2023/03/20 02:04:00;;;;;;;21.50;11.60;;;;;;;2.36;64.06;100946.93;104926;1254;74129;-53
2023/03/20 02:06:50;;;;;;;25.50;11.70;;;;;;;2.30;64.25;100949.39;105281;1256;60537;-53
2023/03/20 02:09:36;;;;;;;23.40;13.30;;;;;;;2.26;64.53;100950.95;104992;1266;60462;-53
2023/03/20 02:12:09;;;;;;;18.40;10.30;;;;;;;2.23;64.63;100956.77;105342;1255;65235;-54
2023/03/20 02:14:38;;;;;;;28.30;14.40;;;;;;;2.17;64.72;100955.41;105089;1257;70296;-54
2023/03/20 02:17:22;;;;;;;27.40;13.30;;;;;;;2.11;64.83;100955.82;105250;1253;65042;-54
2023/03/20 02:20:27;;;;;;;21.50;11.00;;;;;;;2.05;65.00;100957.39;105145;1258;60445;-54
2023/03/20 02:23:30;;;;;;;25.30;12.90;;;;;;;1.98;65.12;100958.14;105646;1254;60566;-54
2023/03/20 02:26:21;;;;;;;29.00;12.60;;;;;;;1.94;65.27;100958.49;105486;1256;66168;-55
2023/03/20 02:29:17;;;;;;;24.90;11.10;;;;;;;1.90;65.44;100956.70;105139;1263;62325;-55
2023/03/20 02:31:53;;;;;;;26.80;13.60;;;;;;;1.88;65.62;100955.55;106648;1255;64804;-55
2023/03/20 02:34:43;;;;;;;26.10;13.20;;;;;;;1.87;65.66;100956.29;105765;1253;63828;-54
2023/03/20 02:37:37;;;;;;;25.70;9.80;;;;;;;1.92;65.61;100955.77;105100;1259;60431;-55
2023/03/20 02:40:44;;;;;;;24.00;10.30;;;;;;;2.00;65.33;100952.35;104946;1267;68093;-55
2023/03/20 02:43:36;;;;;;;22.40;10.00;;;;;;;2.09;65.34;100950.14;105551;1257;62744;-56
2023/03/20 02:46:17;;;;;;;18.40;8.30;;;;;;;2.18;65.27;100946.88;105407;1260;63940;-54
2023/03/20 02:48:54;;;;;;;25.60;10.20;;;;;;;2.28;65.26;100944.28;105129;1257;60525;-54
2023/03/20 02:51:30;;;;;;;27.90;14.50;;;;;;;2.34;65.01;100944.05;105267;1259;60454;-54
2023/03/20 02:54:05;;;;;;;;;;;;;;;2.36;64.85;100943.63;105115;1259;65987;-54
2023/03/20 02:56:50;;;;;;;24.50;14.60;;;;;;;2.35;64.72;100937.43;105091;1260;61718;-55
2023/03/20 02:59:40;;;;;;;27.30;12.10;;;;;;;2.34;64.71;100931.59;105530;1259;64716;-56
2023/03/20 03:02:12;;;;;;;29.70;13.30;;;;;;;2.32;64.50;100925.10;104869;1258;60603;-54
2023/03/20 03:04:46;;;;;;;25.80;11.30;;;;;;;2.26;64.18;100921.66;105390;1254;61151;-54
2023/03/20 03:07:16;;;;;;;22.40;14.90;;;;;;;2.20;64.13;100921.71;104954;1254;66425;-55
2023/03/20 03:09:57;;;;;;;31.70;13.70;;;;;;;2.14;64.04;100915.38;105235;1258;69989;-55
2023/03/20 03:12:35;;;;;;;21.60;12.90;;;;;;;2.08;63.86;100917.13;105158;1255;65018;-54
2023/03/20 03:15:15;;;;;;;28.20;13.60;;;;;;;2.00;63.63;100913.44;104893;1256;60470;-52
2023/03/20 03:17:48;;;;;;;23.80;12.80;;;;;;;1.91;63.65;100911.34;105026;1260;60515;-54
2023/03/20 03:20:33;;;;;;;25.40;12.20;;;;;;;1.83;63.79;100909.19;105007;1260;74825;-53
2023/03/20 03:23:02;;;;;;;26.90;14.00;;;;;;;1.75;63.67;100909.30;105204;1260;62626;-53
2023/03/20 03:25:36;;;;;;;29.40;12.80;;;;;;;1.68;63.85;100909.89;105172;1258;73687;-54
2023/03/20 03:28:08;;;;;;;25.30;12.90;;;;;;;1.62;63.91;100908.52;105468;1255;63080;-53
2023/03/20 03:30:37;;;;;;;31.20;14.10;;;;;;;1.58;64.04;100910.07;104983;1255;61138;-54
2023/03/20 03:33:45;;;;;;;26.10;13.10;;;;;;;1.56;64.34;100910.65;105191;1260;76970;-55
2023/03/20 03:36:35;;;;;;;29.30;13.30;;;;;;;1.55;64.64;100907.22;104641;1259;61755;-54
2023/03/20 03:39:06;;;;;;;26.40;11.60;;;;;;;1.54;64.82;100906.92;104908;1259;64883;-55
2023/03/20 03:41:44;;;;;;;25.70;13.50;;;;;;;1.52;65.07;100907.34;105553;1258;60562;-52
2023/03/20 03:44:25;;;;;;;18.00;8.90;;;;;;;1.56;65.01;100904.94;105283;1258;60556;-52
2023/03/20 03:47:01;;;;;;;25.30;10.30;;;;;;;1.61;64.93;100906.83;104988;1259;65890;-52
2023/03/20 03:49:32;;;;;;;24.70;9.90;;;;;;;1.65;64.98;100909.11;105161;1261;62168;-53
2023/03/20 03:52:12;;;;;;;23.30;9.00;;;;;;;1.71;65.04;100910.30;105440;1259;73583;-53
2023/03/20 03:55:05;;;;;;;21.50;10.30;;;;;;;1.79;65.19;100908.14;105012;1254;60415;-53
2023/03/20 03:57:36;;;;;;;22.10;10.00;;;;;;;1.88;65.29;100909.55;104953;1267;60556;-54
2023/03/20 04:00:12;;;;;;;29.80;14.00;;;;;;;1.92;65.29;100908.55;105020;1260;66230;-54
2023/03/20 04:02:42;;;;;;;23.50;11.20;;;;;;;1.94;65.35;100911.91;105090;1257;71333;-55
2023/03/20 04:05:16;;;;;;;27.00;14.90;;;;;;;1.94;65.27;100912.80;105051;1257;73812;-54
2023/03/20 04:07:46;;;;;;;25.00;11.80;;;;;;;1.91;65.09;100910.11;105447;1263;61009;-54
2023/03/20 04:10:14;;;;;;;25.80;13.00;;;;;;;1.90;64.82;100907.22;105085;1255;62588;-55
2023/03/20 04:12:54;;;;;;;25.90;13.40;;;;;;;1.86;64.62;100908.58;104914;1255;66224;-54
2023/03/20 04:15:22;;;;;;;26.00;14.60;;;;;;;1.78;64.39;100911.98;104921;1257;69179;-54
2023/03/20 04:17:50;;;;;;;28.90;13.50;;;;;;;1.72;64.43;100909.77;105657;1254;74186;-54
2023/03/20 04:20:18;;;;;;;35.10;16.20;;;;;;;1.67;64.53;100905.75;105075;1260;60393;-54
2023/03/20 04:22:47;;;;;;;33.30;17.40;;;;;;;1.64;64.58;100907.60;104990;1260;61348;-54
2023/03/20 04:25:21;;;;;;;24.40;13.50;;;;;;;1.61;64.72;100909.24;105026;1256;73851;-55
2023/03/20 04:27:52;;;;;;;31.40;15.90;;;;;;;1.60;64.96;100913.77;105370;1258;71089;-55
2023/03/20 04:30:32;;;;;;;31.10;16.30;;;;;;;1.60;64.99;100915.68;105081;1260;73522;-55
2023/03/20 04:33:28;;;;;;;26.10;14.40;;;;;;;1.61;65.13;100915.67;104763;1257;61716;-55
2023/03/20 04:36:05;;;;;;;30.90;15.50;;;;;;;1.62;65.29;100915.97;105789;1256;302727;-54
2023/03/20 04:50:29;;;;;;;31.80;16.70;;;;;;;2.14;64.86;100908.50;102781;1283;604565;-54
2023/03/20 04:52:59;;;;;;;29.80;15.90;;;;;;;2.78;63.75;100905.67;104311;1273;91108;-54
2023/03/20 04:55:28;;;;;;;33.80;17.30;;;;;;;2.81;63.73;100902.80;104130;1270;61017;-54
2023/03/20 04:57:56;;;;;;;35.30;17.10;;;;;;;2.78;63.68;100906.71;107387;1268;73416;-54
2023/03/20 05:00:26;;;;;;;46.40;36.20;;;;;;;2.76;63.83;100907.15;108328;1264;71238;-53
2023/03/20 05:02:55;;;;;;;30.90;15.90;;;;;;;2.73;63.84;100911.59;105775;1264;72642;-53
2023/03/20 05:05:24;;;;;;;20.00;12.00;;;;;;;2.77;63.95;100907.28;104736;1269;62691;-53
2023/03/20 05:07:59;;;;;;;22.40;12.20;;;;;;;2.86;63.89;100908.14;104524;1267;61566;-51
2023/03/20 05:10:36;;;;;;;27.70;12.80;;;;;;;2.93;63.85;100911.66;104473;1266;64608;-52
2023/03/20 05:13:33;;;;;;;25.20;13.00;;;;;;;3.03;63.91;100910.75;104501;1265;62422;-52
2023/03/20 05:16:21;;;;;;;23.10;13.10;;;;;;;3.13;63.94;100908.27;108566;1264;64927;-53
2023/03/20 05:19:05;;;;;;;30.10;15.90;;;;;;;3.21;64.12;100908.46;108617;1261;57656;-53
2023/03/20 05:21:54;;;;;;;26.50;14.10;;;;;;;3.30;64.16;100904.29;104296;1261;59714;-53
2023/03/20 05:24:49;;;;;;;26.10;12.50;;;;;;;3.37;64.04;100907.66;104290;1274;65156;-52
2023/03/20 05:27:36;;;;;;;29.40;14.80;;;;;;;3.39;63.89;100907.89;104531;1266;61655;-53
2023/03/20 05:30:24;;;;;;;24.80;15.40;;;;;;;3.40;63.83;100905.43;104717;1261;66230;-53
2023/03/20 05:32:58;;;;;;;29.70;16.00;;;;;;;3.41;63.85;100903.16;104399;1266;61429;-52
2023/03/20 05:35:26;;;;;;;33.30;17.10;;;;;;;3.40;63.94;100904.38;104492;1266;60729;-53
2023/03/20 05:38:11;;;;;;;34.10;19.30;;;;;;;3.42;64.06;100900.50;104530;1263;65964;-52
2023/03/20 05:40:45;;;;;;;33.70;16.70;;;;;;;3.42;64.12;100898.56;104483;1267;71273;-52
2023/03/20 05:43:28;;;;;;;30.90;17.40;;;;;;;3.42;64.20;100901.18;104851;1266;64856;-52
2023/03/20 05:46:25;;;;;;;37.40;21.40;;;;;;;3.43;64.45;100900.65;104834;1263;59560;-52
2023/03/20 05:49:14;;;;;;;31.70;16.50;;;;;;;3.44;64.80;100902.14;104506;1266;59573;-51
2023/03/20 05:52:04;;;;;;;29.00;13.70;;;;;;;3.47;64.97;100907.20;104500;1266;65119;-51
2023/03/20 05:54:42;;;;;;;27.20;12.10;;;;;;;3.56;64.84;100908.74;104684;1266;62668;-52
2023/03/20 05:57:47;;;;;;;27.10;13.30;;;;;;;3.69;64.83;100911.85;103867;1271;65077;-53
2023/03/20 06:00:47;;;;;;;26.70;12.80;;;;;;;3.82;64.67;100912.51;105090;1267;59820;-52
2023/03/20 06:03:47;;;;;;;38.10;16.30;;;;;;;3.96;64.74;100918.48;104508;1264;61616;-53
2023/03/20 06:06:17;;;;;;;32.80;15.10;;;;;;;4.11;64.74;100914.37;105168;1266;74007;-53
2023/03/20 06:08:48;;;;;;;40.30;17.60;;;;;;;4.22;64.83;100916.14;104804;1267;62619;-51
2023/03/20 06:11:17;;;;;;;26.50;15.90;;;;;;;4.34;64.86;100912.30;104601;1267;73465;-52
2023/03/20 06:13:46;;;;;;;29.70;14.80;;;;;;;4.45;64.70;100915.60;104829;1264;59679;-51
2023/03/20 06:16:15;;;;;;;46.90;35.50;;;;;;;4.52;64.28;100915.12;104534;1264;61387;-54
2023/03/20 06:18:45;;;;;;;32.40;17.40;;;;;;;4.54;63.97;100913.96;104540;1263;74293;-51
2023/03/20 06:21:14;;;;;;;24.70;14.20;;;;;;;4.57;64.04;100915.41;104557;1264;71086;-53
2023/03/20 06:23:43;;;;;;;47.40;34.10;;;;;;;4.61;64.17;100918.88;104806;1267;72668;-51
2023/03/20 06:26:11;;;;;;;28.50;12.60;;;;;;;4.65;64.01;100927.50;104622;1263;60798;-53
2023/03/20 06:28:51;;;;;;;26.90;17.00;;;;;;;4.67;64.11;100929.55;104646;1267;59758;-51
2023/03/20 06:31:20;;;;;;;47.20;36.40;;;;;;;4.70;64.24;100927.14;104675;1270;73039;-51
2023/03/20 06:33:49;;;;;;;28.00;14.00;;;;;;;4.75;64.12;100922.38;104645;1266;71283;-50
2023/03/20 06:36:18;;;;;;;23.10;11.30;;;;;;;4.85;64.11;100922.59;104897;1273;72700;-50
2023/03/20 06:38:50;;;;;;;23.30;11.00;;;;;;;5.00;63.95;100925.20;104897;1261;62160;-51
2023/03/20 06:41:19;;;;;;;24.70;11.70;;;;;;;5.14;63.92;100921.05;104810;1263;61132;-51
2023/03/20 06:44:07;;;;;;;47.80;33.60;;;;;;;5.31;63.94;100928.60;104665;1263;65269;-51
2023/03/20 06:46:54;;;;;;;25.90;13.50;;;;;;;5.49;63.95;100928.90;104633;1263;62450;-50
2023/03/20 06:49:24;;;;;;;51.80;35.60;;;;;;;5.65;63.83;100926.35;105343;1260;76174;-52
2023/03/20 06:51:52;;;;;;;48.50;35.30;;;;;;;5.75;63.52;100925.86;104753;1263;61060;-50
2023/03/20 06:54:25;;;;;;;29.10;16.70;;;;;;;5.85;63.12;100923.44;104628;1257;59755;-51
2023/03/20 06:56:54;;;;;;;51.90;38.00;;;;;;;5.93;62.68;100921.27;104841;1263;74095;-51
2023/03/20 06:59:23;;;;;;;26.00;15.60;;;;;;;6.01;62.16;100918.65;105373;1258;70947;-52
2023/03/20 07:01:55;;;;;;;48.60;36.10;;;;;;;6.05;61.75;100915.27;104966;1259;64877;-50
2023/03/20 07:04:25;;;;;;;48.80;37.30;;;;;;;6.09;61.55;100912.77;105015;1254;62349;-52
2023/03/20 07:07:00;;;;;;;41.80;20.30;;;;;;;6.16;61.45;100914.87;104959;1254;60139;-51
2023/03/20 07:09:29;;;;;;;48.60;35.60;;;;;;;6.25;61.05;100913.89;104961;1260;74065;-49
2023/03/20 07:11:57;;;;;;;47.60;35.10;;;;;;;6.32;60.84;100912.27;105186;1254;62325;-52
2023/03/20 07:14:30;;;;;;;31.60;13.90;;;;;;;6.45;60.68;100911.91;104714;1255;65142;-51
2023/03/20 07:17:04;;;;;;;46.90;31.60;;;;;;;6.63;60.35;100912.53;105986;1260;59288;-51
2023/03/20 07:19:35;;;;;;;41.80;32.80;;;;;;;6.75;60.11;100908.70;105134;1254;59656;-51
2023/03/20 07:22:07;;;;;;;46.10;33.70;;;;;;;6.86;60.01;100907.95;105539;1254;65100;-50
2023/03/20 07:24:39;;;;;;;46.80;33.60;;;;;;;6.94;59.74;100911.34;105340;1254;61357;-52
2023/03/20 07:27:13;;;;;;;45.60;34.60;;;;;;;6.98;59.53;100907.47;105165;1257;65207;-53
2023/03/20 07:29:42;;;;;;;47.40;35.00;;;;;;;7.03;59.32;100910.80;105075;1254;59646;-51
2023/03/20 07:32:13;;;;;;;45.70;36.20;;;;;;;7.07;59.17;100907.27;105718;1254;59775;-51
2023/03/20 07:34:49;;;;;;;45.50;36.80;;;;;;;7.09;58.91;100902.97;105260;1255;64217;-53
2023/03/20 07:37:19;;;;;;;44.60;35.90;;;;;;;7.08;58.65;100902.70;105211;1254;62625;-52
2023/03/20 07:40:00;;;;;;;32.80;15.50;;;;;;;7.05;58.66;100900.61;105459;1257;63886;-52
2023/03/20 07:42:55;;;;;;;36.40;20.00;;;;;;;7.06;58.75;100896.72;105492;1254;59658;-52
2023/03/20 07:45:42;;;;;;;53.20;38.00;;;;;;;7.10;58.75;100893.17;105632;1254;59656;-51
2023/03/20 07:48:11;;;;;;;46.20;35.00;;;;;;;7.15;58.66;100891.13;104945;1259;66764;-51
2023/03/20 07:50:40;;;;;;;40.70;30.30;;;;;;;7.25;58.53;100887.95;104913;1254;62329;-51
2023/03/20 07:53:09;;;;;;;41.20;27.40;;;;;;;7.36;58.11;100885.89;105574;1255;65018;-50
2023/03/20 07:55:38;;;;;;;39.30;28.90;;;;;;;7.46;57.61;100883.23;105053;1254;59720;-51
2023/03/20 07:58:10;;;;;;;38.00;27.40;;;;;;;7.54;57.05;100879.98;105152;1254;60224;-50
2023/03/20 08:00:40;;;;;;;36.50;27.50;;;;;;;7.60;56.74;100878.87;105165;1254;64837;-50
2023/03/20 08:03:08;;;;;;;37.80;27.10;;;;;;;7.65;56.42;100880.69;105061;1254;61528;-51
2023/03/20 08:05:37;;;;;;;32.20;25.20;;;;;;;7.71;56.17;100873.90;105157;1254;63952;-51
2023/03/20 08:08:06;;;;;;;29.70;23.30;;;;;;;7.76;55.72;100872.89;105066;1254;59603;-51
2023/03/20 08:10:35;;;;;;;31.60;24.20;;;;;;;7.83;55.46;100874.03;105942;1254;59682;-52
2023/03/20 08:13:04;;;;;;;34.00;23.80;;;;;;;7.90;55.08;100879.56;105223;1254;65945;-51
2023/03/20 08:15:32;;;;;;;30.20;22.50;;;;;;;7.96;54.88;100876.41;104959;1254;62370;-51
2023/03/20 08:18:00;;;;;;;28.60;20.70;;;;;;;8.02;54.44;100876.36;104938;1257;63737;-52
2023/03/20 08:20:30;;;;;;;27.80;18.90;;;;;;;8.08;53.89;100880.02;105459;1254;61912;-50
2023/03/20 08:22:59;;;;;;;24.60;15.40;;;;;;;8.13;53.51;100882.83;105016;1254;59705;-51
2023/03/20 08:25:33;;;;;;;22.90;16.40;;;;;;;8.21;53.05;100887.27;105295;1254;65461;-51
2023/03/20 08:28:02;;;;;;;25.90;16.70;;;;;;;8.28;52.55;100885.09;104986;1254;61760;-51
2023/03/20 08:30:31;;;;;;;24.00;16.60;;;;;;;8.35;52.30;100886.23;105672;1254;65043;-52
2023/03/20 08:33:01;;;;;;;21.30;14.80;;;;;;;8.43;51.99;100884.52;104966;1254;59861;-51
2023/03/20 08:35:30;;;;;;;21.50;14.70;;;;;;;8.50;51.51;100880.09;105700;1254;59743;-51
2023/03/20 08:38:14;;;;;;;14.70;10.60;;;;;;;8.57;51.01;100876.50;106395;1254;64941;-52
2023/03/20 08:40:42;;;;;;;17.60;11.10;;;;;;;8.63;50.33;100879.45;105081;1253;62634;-49
2023/03/20 08:43:11;;;;;;;15.80;11.40;;;;;;;8.68;49.84;100880.66;106116;1254;65288;-52
2023/03/20 08:45:42;;;;;;;19.30;14.10;;;;;;;8.72;50.02;100876.73;105330;1254;59554;-52
2023/03/20 08:48:11;;;;;;;20.40;14.20;;;;;;;8.79;49.84;100874.91;104915;1254;59656;-52
2023/03/20 08:50:43;;;;;;;18.40;11.30;;;;;;;8.85;49.56;100871.16;106241;1257;65350;-51
2023/03/20 08:53:12;;;;;;;15.70;10.50;;;;;;;8.92;49.26;100869.02;105249;1254;61439;-50
2023/03/20 08:55:47;;;;;;;17.50;11.80;;;;;;;8.99;48.89;100865.17;104982;1254;65042;-51
2023/03/20 08:58:17;;;;;;;20.50;13.40;;;;;;;9.06;48.63;100860.53;105232;1254;59650;-53
2023/03/20 09:00:45;;;;;;;21.70;13.70;;;;;;;9.13;48.66;100858.34;108292;1254;60197;-53
2023/03/20 09:03:15;;;;;;;18.20;13.90;;;;;;;9.20;48.38;100851.38;105072;1257;65613;-53
2023/03/20 09:05:45;;;;;;;20.00;14.70;;;;;;;9.27;48.14;100854.96;105553;1257;62534;-51
2023/03/20 09:08:13;;;;;;;20.60;13.50;;;;;;;9.34;47.79;100850.10;106458;1254;67393;-51
2023/03/20 09:10:43;;;;;;;19.00;14.40;;;;;;;9.42;47.62;100851.33;105190;1254;61724;-52
2023/03/20 09:13:12;;;;;;;21.60;15.70;;;;;;;9.51;47.61;100851.94;105102;1254;61005;-52
2023/03/20 09:15:54;;;;;;;19.60;13.20;;;;;;;9.61;47.54;100846.02;105068;1254;65923;-52
2023/03/20 09:18:23;;;;;;;16.90;12.00;;;;;;;9.69;47.07;100834.95;105173;1257;61774;-55
2023/03/20 09:20:51;;;;;;;16.40;12.40;;;;;;;9.77;46.78;100831.27;104893;1254;65047;-53
2023/03/20 09:23:19;;;;;;;15.50;11.90;;;;;;;9.86;46.70;100826.80;105044;1254;60481;-53
2023/03/20 09:25:50;;;;;;;15.60;11.50;;;;;;;9.95;46.24;100824.41;105235;1254;60368;-54
2023/03/20 09:28:19;;;;;;;17.90;11.50;;;;;;;10.02;45.77;100818.11;105167;1257;66048;-53
2023/03/20 09:30:47;;;;;;;19.10;11.30;;;;;;;10.09;45.39;100816.55;105654;1252;62631;-53
2023/03/20 09:33:17;;;;;;;14.30;9.20;;;;;;;10.16;45.07;100812.23;105288;1254;64944;-51
2023/03/20 09:35:46;;;;;;;16.50;10.00;;;;;;;10.22;44.57;100810.37;105200;1254;60523;-52
2023/03/20 09:38:14;;;;;;;14.30;9.00;;;;;;;10.27;44.18;100808.45;105404;1254;60474;-52
2023/03/20 09:41:08;;;;;;;15.70;10.60;;;;;;;10.33;44.18;100808.00;105111;1254;63816;-52
2023/03/20 09:43:52;;;;;;;13.70;9.90;;;;;;;10.43;44.19;100808.21;105417;1253;62877;-52
2023/03/20 09:46:48;;;;;;;13.90;9.20;;;;;;;10.53;44.00;100807.96;105221;1254;63981;-54
2023/03/20 09:49:51;;;;;;;16.30;11.10;;;;;;;10.63;43.93;100808.64;105059;1254;60861;-55
2023/03/20 09:52:29;;;;;;;15.50;11.00;;;;;;;10.74;43.90;100805.96;105056;1254;60543;-53
2023/03/20 09:55:01;;;;;;;18.10;12.40;;;;;;;10.84;44.12;100801.16;105481;1257;66296;-54
2023/03/20 09:57:40;;;;;;;19.70;13.20;;;;;;;10.93;44.17;100799.40;105146;1254;62673;-52
2023/03/20 10:00:23;;;;;;;20.40;13.90;;;;;;;11.02;44.25;100797.74;105203;1254;64859;-52
2023/03/20 10:02:57;;;;;;;21.10;15.10;;;;;;;11.09;44.36;100791.95;105305;1258;60928;-52
2023/03/20 10:05:34;;;;;;;18.70;14.80;;;;;;;11.16;44.26;100784.92;105193;1254;61314;-51
2023/03/20 10:08:06;;;;;;;23.90;13.50;;;;;;;11.23;44.25;100779.98;105519;1254;66272;-51
2023/03/20 10:10:45;;;;;;;24.40;14.40;;;;;;;11.29;44.13;100778.08;105155;1254;62252;-51
2023/03/20 10:13:31;;;;;;;21.70;13.60;;;;;;;11.34;43.98;100776.14;105100;1254;65102;-52
2023/03/20 10:16:07;;;;;;;16.50;12.60;;;;;;;11.40;44.13;100775.57;105928;1253;60437;-50
2023/03/20 10:18:37;;;;;;;19.50;12.00;;;;;;;11.47;44.17;100769.87;109159;1254;58551;-54
2023/03/20 10:21:14;;;;;;;21.30;12.50;;;;;;;11.59;44.08;100768.04;109022;1254;66074;-54
2023/03/20 10:24:02;;;;;;;20.70;12.20;;;;;;;11.74;43.72;100764.45;108904;1254;61703;-54
2023/03/20 10:26:33;;;;;;;17.60;11.90;;;;;;;11.86;43.12;100757.17;109033;1254;64731;-54
2023/03/20 10:29:24;;;;;;;16.00;11.40;;;;;;;11.94;42.96;100752.83;109050;1253;58240;-53
2023/03/20 10:32:40;;;;;;;17.60;12.60;;;;;;;12.03;42.80;100748.63;109047;1253;58547;-54
2023/03/20 10:35:20;;;;;;;19.00;11.40;;;;;;;12.14;42.68;100742.65;109120;1253;65208;-54
2023/03/20 10:38:11;;;;;;;16.10;10.70;;;;;;;12.23;42.70;100743.02;109073;1253;61479;-54
2023/03/20 10:40:41;;;;;;;14.40;10.50;;;;;;;12.31;42.42;100736.87;108956;1254;64750;-54
2023/03/20 10:43:20;;;;;;;18.50;11.20;;;;;;;12.40;42.11;100733.83;109033;1254;58617;-53
2023/03/20 10:45:53;;;;;;;13.30;10.30;;;;;;;12.51;41.91;100727.00;109008;1254;58200;-54
2023/03/20 10:48:39;;;;;;;16.30;10.60;;;;;;;12.60;41.68;100718.70;109083;1254;66395;-54
2023/03/20 10:51:13;;;;;;;16.00;10.60;;;;;;;12.69;41.79;100716.38;109051;1254;61845;-54
2023/03/20 10:53:41;;;;;;;13.50;11.40;;;;;;;12.79;41.77;100714.84;106115;1254;65343;-51
2023/03/20 10:56:25;;;;;;;16.20;10.50;;;;;;;12.87;41.28;100712.18;106118;1257;60351;-52
2023/03/20 10:59:02;;;;;;;13.90;9.90;;;;;;;12.91;40.77;100706.91;105609;1253;60536;-51
2023/03/20 11:01:36;;;;;;;14.00;9.40;;;;;;;12.96;40.78;100706.90;105294;1257;66284;-53
2023/03/20 11:04:06;;;;;;;14.80;10.20;;;;;;;13.00;40.82;100701.56;105475;1254;62601;-52
2023/03/20 11:06:42;;;;;;;18.00;10.50;;;;;;;13.09;40.79;100699.23;105445;1257;64211;-52
2023/03/20 11:09:20;;;;;;;;;;;;;;;13.17;40.35;100698.17;105718;1255;60590;-51
2023/03/20 11:11:51;;;;;;;15.00;9.80;;;;;;;13.23;40.50;100702.31;105614;1254;60555;-51
2023/03/20 11:14:24;;;;;;;13.60;9.60;;;;;;;13.30;40.69;100699.38;105796;1256;66515;-49
2023/03/20 11:16:54;;;;;;;13.40;9.80;;;;;;;13.42;40.54;100696.99;106524;1253;62744;-50
2023/03/20 11:19:22;;;;;;;12.30;8.60;;;;;;;13.54;40.60;100695.36;105523;1254;64034;-52
2023/03/20 11:21:56;;;;;;;13.60;9.90;;;;;;;13.69;40.10;100686.53;105654;1253;60329;-51
2023/03/20 11:24:37;;;;;;;14.80;10.60;;;;;;;13.80;40.05;100684.61;105439;1254;60563;-52
2023/03/20 11:27:23;;;;;;;15.80;9.70;;;;;;;13.92;39.79;100682.34;105402;1258;66204;-50
2023/03/20 11:29:51;;;;;;;15.50;10.00;;;;;;;14.01;39.33;100679.93;105300;1253;62631;-52
2023/03/20 11:32:28;;;;;;;17.70;10.30;;;;;;;14.08;39.27;100676.11;105369;1257;64992;-55
2023/03/20 11:35:09;;;;;;;14.30;9.40;;;;;;;14.18;39.17;100667.52;105119;1254;61077;-51
2023/03/20 11:37:43;;;;;;;13.90;9.20;;;;;;;14.25;39.08;100660.09;105735;1254;59368;-50
2023/03/20 11:40:11;;;;;;;14.50;9.30;;;;;;;14.36;38.21;100661.86;105224;1257;66104;-52
2023/03/20 11:42:54;;;;;;;12.00;8.70;;;;;;;14.44;37.66;100662.31;105437;1257;61766;-52
2023/03/20 11:45:24;;;;;;;13.40;8.70;;;;;;;14.54;37.73;100661.77;105393;1257;64029;-53
2023/03/20 11:47:55;;;;;;;13.90;10.30;;;;;;;14.64;37.31;100661.39;105466;1259;60434;-49
2023/03/20 11:50:36;;;;;;;14.40;9.80;;;;;;;14.73;37.22;100659.27;105490;1254;60383;-51
2023/03/20 11:53:25;;;;;;;12.40;9.20;;;;;;;14.83;37.32;100655.55;105393;1254;65163;-53
2023/03/20 11:56:07;;;;;;;11.80;8.70;;;;;;;14.89;37.30;100648.14;106029;1253;62268;-50
2023/03/20 11:59:11;;;;;;;15.10;10.30;;;;;;;14.96;37.15;100646.73;105209;1254;65045;-50
2023/03/20 12:01:51;;;;;;;12.80;9.10;;;;;;;15.09;37.28;100642.84;105146;1254;60418;-50